sensor_id;sensor_type;location;lat;lon;timestamp;temperature;humidity
54938;DHT22;52756;52.826;6.214;2022-07-11T00:00:06;18.10;66.80
54938;DHT22;52756;52.826;6.214;2022-07-11T00:02:33;18.10;66.80
54938;DHT22;52756;52.826;6.214;2022-07-11T00:04:59;18.10;66.80
54938;DHT22;52756;52.826;6.214;2022-07-11T00:07:24;18.10;66.80
54938;DHT22;52756;52.826;6.214;2022-07-11T00:09:50;18.10;66.90
54938;DHT22;52756;52.826;6.214;2022-07-11T00:12:16;18.10;66.80
54938;DHT22;52756;52.826;6.214;2022-07-11T00:14:42;18.10;66.80
54938;DHT22;52756;52.826;6.214;2022-07-11T00:17:08;18.10;66.90
54938;DHT22;52756;52.826;6.214;2022-07-11T00:19:35;18.00;66.80
54938;DHT22;52756;52.826;6.214;2022-07-11T00:22:02;18.00;66.80
54938;DHT22;52756;52.826;6.214;2022-07-11T00:24:28;18.00;66.80
54938;DHT22;52756;52.826;6.214;2022-07-11T00:26:55;18.00;66.70
54938;DHT22;52756;52.826;6.214;2022-07-11T00:29:20;18.00;66.80
54938;DHT22;52756;52.826;6.214;2022-07-11T00:31:46;18.00;66.70
54938;DHT22;52756;52.826;6.214;2022-07-11T00:34:12;18.00;66.60
54938;DHT22;52756;52.826;6.214;2022-07-11T00:36:38;18.00;66.60
54938;DHT22;52756;52.826;6.214;2022-07-11T00:39:03;18.00;66.60
54938;DHT22;52756;52.826;6.214;2022-07-11T00:41:29;18.00;66.70
54938;DHT22;52756;52.826;6.214;2022-07-11T00:43:57;18.00;66.60
54938;DHT22;52756;52.826;6.214;2022-07-11T00:46:24;18.00;66.60
54938;DHT22;52756;52.826;6.214;2022-07-11T00:48:51;17.90;66.60
54938;DHT22;52756;52.826;6.214;2022-07-11T00:51:21;17.90;66.60
54938;DHT22;52756;52.826;6.214;2022-07-11T00:53:53;17.90;66.60
54938;DHT22;52756;52.826;6.214;2022-07-11T00:56:26;17.90;66.50
54938;DHT22;52756;52.826;6.214;2022-07-11T00:58:52;17.90;66.50
54938;DHT22;52756;52.826;6.214;2022-07-11T01:01:20;17.90;66.60
54938;DHT22;52756;52.826;6.214;2022-07-11T01:03:46;17.90;66.70
54938;DHT22;52756;52.826;6.214;2022-07-11T01:06:12;17.90;66.60
54938;DHT22;52756;52.826;6.214;2022-07-11T01:08:38;17.90;66.60
54938;DHT22;52756;52.826;6.214;2022-07-11T01:11:05;17.90;66.60
54938;DHT22;52756;52.826;6.214;2022-07-11T01:13:35;17.90;66.60
54938;DHT22;52756;52.826;6.214;2022-07-11T01:16:16;17.90;66.50
54938;DHT22;52756;52.826;6.214;2022-07-11T01:18:47;17.90;66.40
54938;DHT22;52756;52.826;6.214;2022-07-11T01:21:48;17.90;66.50
54938;DHT22;52756;52.826;6.214;2022-07-11T01:24:11;17.90;66.50
54938;DHT22;52756;52.826;6.214;2022-07-11T01:26:37;17.80;66.60
54938;DHT22;52756;52.826;6.214;2022-07-11T01:29:06;17.80;66.60
54938;DHT22;52756;52.826;6.214;2022-07-11T01:31:32;17.80;66.60
54938;DHT22;52756;52.826;6.214;2022-07-11T01:33:58;17.80;66.60
54938;DHT22;52756;52.826;6.214;2022-07-11T01:36:24;17.80;66.60
54938;DHT22;52756;52.826;6.214;2022-07-11T01:38:49;17.80;66.60
54938;DHT22;52756;52.826;6.214;2022-07-11T01:41:15;17.80;66.60
54938;DHT22;52756;52.826;6.214;2022-07-11T01:43:41;17.80;66.60
54938;DHT22;52756;52.826;6.214;2022-07-11T01:46:07;17.90;66.60
54938;DHT22;52756;52.826;6.214;2022-07-11T01:48:32;17.80;66.60
54938;DHT22;52756;52.826;6.214;2022-07-11T01:50:58;17.80;66.50
54938;DHT22;52756;52.826;6.214;2022-07-11T01:53:24;17.80;66.60
54938;DHT22;52756;52.826;6.214;2022-07-11T01:55:50;17.80;66.70
54938;DHT22;52756;52.826;6.214;2022-07-11T01:58:16;17.80;66.70
54938;DHT22;52756;52.826;6.214;2022-07-11T02:00:42;17.80;66.80
54938;DHT22;52756;52.826;6.214;2022-07-11T02:03:08;17.80;66.80
54938;DHT22;52756;52.826;6.214;2022-07-11T02:05:34;17.80;66.90
54938;DHT22;52756;52.826;6.214;2022-07-11T02:08:00;17.80;67.00
54938;DHT22;52756;52.826;6.214;2022-07-11T02:10:43;17.80;67.10
54938;DHT22;52756;52.826;6.214;2022-07-11T02:13:11;17.80;67.20
54938;DHT22;52756;52.826;6.214;2022-07-11T02:15:37;17.80;67.30
54938;DHT22;52756;52.826;6.214;2022-07-11T02:18:03;17.70;67.20
54938;DHT22;52756;52.826;6.214;2022-07-11T02:20:29;17.70;67.10
54938;DHT22;52756;52.826;6.214;2022-07-11T02:22:55;17.70;67.20
54938;DHT22;52756;52.826;6.214;2022-07-11T02:25:22;17.70;67.20
54938;DHT22;52756;52.826;6.214;2022-07-11T02:27:48;17.70;67.20
54938;DHT22;52756;52.826;6.214;2022-07-11T02:30:14;17.70;67.20
54938;DHT22;52756;52.826;6.214;2022-07-11T02:32:39;17.70;67.30
54938;DHT22;52756;52.826;6.214;2022-07-11T02:35:06;17.70;67.30
54938;DHT22;52756;52.826;6.214;2022-07-11T02:37:31;17.70;67.50
54938;DHT22;52756;52.826;6.214;2022-07-11T02:39:57;17.70;67.70
54938;DHT22;52756;52.826;6.214;2022-07-11T02:42:23;17.70;67.80
54938;DHT22;52756;52.826;6.214;2022-07-11T02:44:49;17.70;67.90
54938;DHT22;52756;52.826;6.214;2022-07-11T02:47:14;17.70;68.00
54938;DHT22;52756;52.826;6.214;2022-07-11T02:49:41;17.70;68.00
54938;DHT22;52756;52.826;6.214;2022-07-11T02:52:07;17.70;68.20
54938;DHT22;52756;52.826;6.214;2022-07-11T02:54:33;17.70;68.30
54938;DHT22;52756;52.826;6.214;2022-07-11T02:56:58;17.60;68.30
54938;DHT22;52756;52.826;6.214;2022-07-11T02:59:24;17.70;68.40
54938;DHT22;52756;52.826;6.214;2022-07-11T03:01:50;17.60;68.30
54938;DHT22;52756;52.826;6.214;2022-07-11T03:04:16;17.60;68.40
54938;DHT22;52756;52.826;6.214;2022-07-11T03:06:42;17.60;68.50
54938;DHT22;52756;52.826;6.214;2022-07-11T03:09:09;17.60;68.60
54938;DHT22;52756;52.826;6.214;2022-07-11T03:11:35;17.60;68.60
54938;DHT22;52756;52.826;6.214;2022-07-11T03:14:01;17.60;68.60
54938;DHT22;52756;52.826;6.214;2022-07-11T03:16:27;17.60;68.50
54938;DHT22;52756;52.826;6.214;2022-07-11T03:18:53;17.60;68.50
54938;DHT22;52756;52.826;6.214;2022-07-11T03:21:19;17.60;68.50
54938;DHT22;52756;52.826;6.214;2022-07-11T03:23:45;17.60;68.40
54938;DHT22;52756;52.826;6.214;2022-07-11T03:26:10;17.60;68.30
54938;DHT22;52756;52.826;6.214;2022-07-11T03:28:36;17.60;68.50
54938;DHT22;52756;52.826;6.214;2022-07-11T03:31:02;17.60;68.90
54938;DHT22;52756;52.826;6.214;2022-07-11T03:33:28;17.60;69.10
54938;DHT22;52756;52.826;6.214;2022-07-11T03:35:54;17.60;69.20
54938;DHT22;52756;52.826;6.214;2022-07-11T03:38:20;17.60;69.30
54938;DHT22;52756;52.826;6.214;2022-07-11T03:40:47;17.60;69.30
54938;DHT22;52756;52.826;6.214;2022-07-11T03:43:13;17.60;69.40
54938;DHT22;52756;52.826;6.214;2022-07-11T03:45:40;17.60;69.50
54938;DHT22;52756;52.826;6.214;2022-07-11T03:48:06;17.50;69.40
54938;DHT22;52756;52.826;6.214;2022-07-11T03:50:33;17.50;69.40
54938;DHT22;52756;52.826;6.214;2022-07-11T03:52:58;17.60;69.40
54938;DHT22;52756;52.826;6.214;2022-07-11T03:55:24;17.60;69.80
54938;DHT22;52756;52.826;6.214;2022-07-11T03:57:50;17.50;69.90
54938;DHT22;52756;52.826;6.214;2022-07-11T04:00:16;17.50;70.10
54938;DHT22;52756;52.826;6.214;2022-07-11T04:02:42;17.50;70.20
54938;DHT22;52756;52.826;6.214;2022-07-11T04:05:08;17.50;70.10
54938;DHT22;52756;52.826;6.214;2022-07-11T04:07:34;17.60;70.30
54938;DHT22;52756;52.826;6.214;2022-07-11T04:09:59;17.50;70.30
54938;DHT22;52756;52.826;6.214;2022-07-11T04:12:25;17.50;70.40
54938;DHT22;52756;52.826;6.214;2022-07-11T04:14:51;17.50;70.50
54938;DHT22;52756;52.826;6.214;2022-07-11T04:17:16;17.50;70.60
54938;DHT22;52756;52.826;6.214;2022-07-11T04:19:42;17.50;70.60
54938;DHT22;52756;52.826;6.214;2022-07-11T04:22:08;17.50;70.60
54938;DHT22;52756;52.826;6.214;2022-07-11T04:24:34;17.50;70.70
54938;DHT22;52756;52.826;6.214;2022-07-11T04:26:59;17.50;70.60
54938;DHT22;52756;52.826;6.214;2022-07-11T04:29:26;17.50;70.70
54938;DHT22;52756;52.826;6.214;2022-07-11T04:31:52;17.50;71.30
54938;DHT22;52756;52.826;6.214;2022-07-11T04:34:18;17.50;70.80
54938;DHT22;52756;52.826;6.214;2022-07-11T04:36:44;17.50;70.90
54938;DHT22;52756;52.826;6.214;2022-07-11T04:39:10;17.50;71.10
54938;DHT22;52756;52.826;6.214;2022-07-11T04:41:36;17.50;71.10
54938;DHT22;52756;52.826;6.214;2022-07-11T04:44:01;17.50;71.20
54938;DHT22;52756;52.826;6.214;2022-07-11T04:46:27;17.50;71.10
54938;DHT22;52756;52.826;6.214;2022-07-11T04:48:54;17.50;71.20
54938;DHT22;52756;52.826;6.214;2022-07-11T04:51:20;17.50;71.40
54938;DHT22;52756;52.826;6.214;2022-07-11T04:53:46;17.50;71.40
54938;DHT22;52756;52.826;6.214;2022-07-11T04:56:12;17.50;71.60
54938;DHT22;52756;52.826;6.214;2022-07-11T04:58:38;17.50;71.60
54938;DHT22;52756;52.826;6.214;2022-07-11T05:01:04;17.50;71.60
54938;DHT22;52756;52.826;6.214;2022-07-11T05:03:30;17.50;71.60
54938;DHT22;52756;52.826;6.214;2022-07-11T05:05:57;17.50;71.60
54938;DHT22;52756;52.826;6.214;2022-07-11T05:08:23;17.50;71.70
54938;DHT22;52756;52.826;6.214;2022-07-11T05:10:49;17.50;71.80
54938;DHT22;52756;52.826;6.214;2022-07-11T05:13:15;17.50;71.80
54938;DHT22;52756;52.826;6.214;2022-07-11T05:15:41;17.50;71.80
54938;DHT22;52756;52.826;6.214;2022-07-11T05:18:06;17.50;72.00
54938;DHT22;52756;52.826;6.214;2022-07-11T05:20:32;17.50;72.00
54938;DHT22;52756;52.826;6.214;2022-07-11T05:22:58;17.60;72.20
54938;DHT22;52756;52.826;6.214;2022-07-11T05:25:25;17.50;72.10
54938;DHT22;52756;52.826;6.214;2022-07-11T05:27:51;17.60;72.10
54938;DHT22;52756;52.826;6.214;2022-07-11T05:30:17;17.60;72.20
54938;DHT22;52756;52.826;6.214;2022-07-11T05:32:42;17.60;72.40
54938;DHT22;52756;52.826;6.214;2022-07-11T05:35:08;17.60;72.50
54938;DHT22;52756;52.826;6.214;2022-07-11T05:37:35;17.70;72.60
54938;DHT22;52756;52.826;6.214;2022-07-11T05:40:00;17.70;72.60
54938;DHT22;52756;52.826;6.214;2022-07-11T05:42:26;17.70;72.40
54938;DHT22;52756;52.826;6.214;2022-07-11T05:44:53;17.80;72.40
54938;DHT22;52756;52.826;6.214;2022-07-11T05:47:18;17.80;72.30
54938;DHT22;52756;52.826;6.214;2022-07-11T05:49:44;17.80;72.30
54938;DHT22;52756;52.826;6.214;2022-07-11T05:52:09;17.80;72.30
54938;DHT22;52756;52.826;6.214;2022-07-11T05:54:36;17.90;72.30
54938;DHT22;52756;52.826;6.214;2022-07-11T05:57:03;17.90;72.30
54938;DHT22;52756;52.826;6.214;2022-07-11T05:59:29;17.90;72.30
54938;DHT22;52756;52.826;6.214;2022-07-11T06:01:56;17.90;72.20
54938;DHT22;52756;52.826;6.214;2022-07-11T06:04:21;17.90;72.00
54938;DHT22;52756;52.826;6.214;2022-07-11T06:06:47;17.90;71.90
54938;DHT22;52756;52.826;6.214;2022-07-11T06:09:13;18.00;71.90
54938;DHT22;52756;52.826;6.214;2022-07-11T06:11:40;18.00;71.70
54938;DHT22;52756;52.826;6.214;2022-07-11T06:14:05;18.00;71.50
54938;DHT22;52756;52.826;6.214;2022-07-11T06:16:31;18.00;71.50
54938;DHT22;52756;52.826;6.214;2022-07-11T06:18:57;18.00;71.80
54938;DHT22;52756;52.826;6.214;2022-07-11T06:21:24;18.00;71.80
54938;DHT22;52756;52.826;6.214;2022-07-11T06:23:50;18.00;71.80
54938;DHT22;52756;52.826;6.214;2022-07-11T06:26:16;18.00;71.90
54938;DHT22;52756;52.826;6.214;2022-07-11T06:28:42;18.00;71.90
54938;DHT22;52756;52.826;6.214;2022-07-11T06:31:08;18.10;71.90
54938;DHT22;52756;52.826;6.214;2022-07-11T06:33:33;18.10;72.00
54938;DHT22;52756;52.826;6.214;2022-07-11T06:36:01;18.10;71.90
54938;DHT22;52756;52.826;6.214;2022-07-11T06:38:27;18.10;72.00
54938;DHT22;52756;52.826;6.214;2022-07-11T06:40:54;18.20;72.40
54938;DHT22;52756;52.826;6.214;2022-07-11T06:43:20;18.20;72.30
54938;DHT22;52756;52.826;6.214;2022-07-11T06:45:46;18.20;72.30
54938;DHT22;52756;52.826;6.214;2022-07-11T06:48:12;18.20;72.50
54938;DHT22;52756;52.826;6.214;2022-07-11T06:50:38;18.20;72.50
54938;DHT22;52756;52.826;6.214;2022-07-11T06:53:03;18.30;72.50
54938;DHT22;52756;52.826;6.214;2022-07-11T06:55:30;18.30;72.40
54938;DHT22;52756;52.826;6.214;2022-07-11T06:57:55;18.30;72.30
54938;DHT22;52756;52.826;6.214;2022-07-11T07:00:21;18.40;72.30
54938;DHT22;52756;52.826;6.214;2022-07-11T07:02:47;18.40;72.40
54938;DHT22;52756;52.826;6.214;2022-07-11T07:05:13;18.40;72.30
54938;DHT22;52756;52.826;6.214;2022-07-11T07:07:38;18.50;72.80
54938;DHT22;52756;52.826;6.214;2022-07-11T07:10:05;18.50;72.40
54938;DHT22;52756;52.826;6.214;2022-07-11T07:12:31;18.50;72.50
54938;DHT22;52756;52.826;6.214;2022-07-11T07:14:59;18.50;72.70
54938;DHT22;52756;52.826;6.214;2022-07-11T07:17:25;18.60;72.80
54938;DHT22;52756;52.826;6.214;2022-07-11T07:19:50;18.60;72.70
54938;DHT22;52756;52.826;6.214;2022-07-11T07:22:16;18.60;72.70
54938;DHT22;52756;52.826;6.214;2022-07-11T07:24:42;18.70;72.70
54938;DHT22;52756;52.826;6.214;2022-07-11T07:27:08;18.70;72.50
54938;DHT22;52756;52.826;6.214;2022-07-11T07:29:34;18.70;72.30
54938;DHT22;52756;52.826;6.214;2022-07-11T07:32:00;18.80;72.20
54938;DHT22;52756;52.826;6.214;2022-07-11T07:34:25;18.80;72.10
54938;DHT22;52756;52.826;6.214;2022-07-11T07:36:51;18.90;72.00
54938;DHT22;52756;52.826;6.214;2022-07-11T07:39:17;18.90;71.70
54938;DHT22;52756;52.826;6.214;2022-07-11T07:41:43;18.90;71.60
54938;DHT22;52756;52.826;6.214;2022-07-11T07:44:09;18.90;71.40
54938;DHT22;52756;52.826;6.214;2022-07-11T07:46:34;18.90;71.30
54938;DHT22;52756;52.826;6.214;2022-07-11T07:49:00;18.90;71.30
54938;DHT22;52756;52.826;6.214;2022-07-11T07:51:26;18.90;71.40
54938;DHT22;52756;52.826;6.214;2022-07-11T07:53:52;18.90;71.60
54938;DHT22;52756;52.826;6.214;2022-07-11T07:56:18;19.00;71.80
54938;DHT22;52756;52.826;6.214;2022-07-11T07:58:45;19.00;71.60
54938;DHT22;52756;52.826;6.214;2022-07-11T08:01:10;19.10;71.70
54938;DHT22;52756;52.826;6.214;2022-07-11T08:03:55;19.10;71.60
54938;DHT22;52756;52.826;6.214;2022-07-11T08:06:21;19.10;71.10
54938;DHT22;52756;52.826;6.214;2022-07-11T08:08:47;19.20;70.80
54938;DHT22;52756;52.826;6.214;2022-07-11T08:11:13;19.20;70.60
54938;DHT22;52756;52.826;6.214;2022-07-11T08:13:39;19.20;70.50
54938;DHT22;52756;52.826;6.214;2022-07-11T08:16:05;19.30;70.40
54938;DHT22;52756;52.826;6.214;2022-07-11T08:18:33;19.30;70.80
54938;DHT22;52756;52.826;6.214;2022-07-11T08:20:59;19.30;70.90
54938;DHT22;52756;52.826;6.214;2022-07-11T08:23:25;19.40;71.00
54938;DHT22;52756;52.826;6.214;2022-07-11T08:25:51;19.50;70.90
54938;DHT22;52756;52.826;6.214;2022-07-11T08:28:17;19.50;70.80
54938;DHT22;52756;52.826;6.214;2022-07-11T08:30:43;19.60;70.90
54938;DHT22;52756;52.826;6.214;2022-07-11T08:33:08;19.80;71.20
54938;DHT22;52756;52.826;6.214;2022-07-11T08:35:35;19.90;70.80
54938;DHT22;52756;52.826;6.214;2022-07-11T08:38:01;20.00;70.20
54938;DHT22;52756;52.826;6.214;2022-07-11T08:40:26;20.10;69.40
54938;DHT22;52756;52.826;6.214;2022-07-11T08:42:53;20.20;68.70
54938;DHT22;52756;52.826;6.214;2022-07-11T08:45:22;20.20;68.30
54938;DHT22;52756;52.826;6.214;2022-07-11T08:47:54;20.30;68.00
54938;DHT22;52756;52.826;6.214;2022-07-11T08:50:20;20.30;67.90
54938;DHT22;52756;52.826;6.214;2022-07-11T08:52:48;20.30;68.00
54938;DHT22;52756;52.826;6.214;2022-07-11T08:55:13;20.40;68.30
54938;DHT22;52756;52.826;6.214;2022-07-11T08:57:39;20.50;67.60
54938;DHT22;52756;52.826;6.214;2022-07-11T09:00:07;20.50;67.50
54938;DHT22;52756;52.826;6.214;2022-07-11T09:02:35;20.60;66.90
54938;DHT22;52756;52.826;6.214;2022-07-11T09:05:05;20.60;66.60
54938;DHT22;52756;52.826;6.214;2022-07-11T09:07:32;20.70;66.40
54938;DHT22;52756;52.826;6.214;2022-07-11T09:09:58;20.70;65.80
54938;DHT22;52756;52.826;6.214;2022-07-11T09:12:23;20.80;65.80
54938;DHT22;52756;52.826;6.214;2022-07-11T09:14:50;20.80;65.30
54938;DHT22;52756;52.826;6.214;2022-07-11T09:17:25;20.80;64.30
54938;DHT22;52756;52.826;6.214;2022-07-11T09:19:54;20.90;63.30
54938;DHT22;52756;52.826;6.214;2022-07-11T09:22:20;20.90;63.40
54938;DHT22;52756;52.826;6.214;2022-07-11T09:25:04;20.90;63.60
54938;DHT22;52756;52.826;6.214;2022-07-11T09:28:00;20.90;64.30
54938;DHT22;52756;52.826;6.214;2022-07-11T09:30:29;20.90;64.40
54938;DHT22;52756;52.826;6.214;2022-07-11T09:33:00;20.90;64.20
54938;DHT22;52756;52.826;6.214;2022-07-11T09:35:37;20.90;63.70
54938;DHT22;52756;52.826;6.214;2022-07-11T09:38:04;21.00;63.90
54938;DHT22;52756;52.826;6.214;2022-07-11T09:40:31;21.00;63.70
54938;DHT22;52756;52.826;6.214;2022-07-11T09:42:58;21.00;63.50
54938;DHT22;52756;52.826;6.214;2022-07-11T09:45:27;21.10;63.40
54938;DHT22;52756;52.826;6.214;2022-07-11T09:47:55;21.10;63.90
54938;DHT22;52756;52.826;6.214;2022-07-11T09:50:27;21.10;63.60
54938;DHT22;52756;52.826;6.214;2022-07-11T09:53:06;21.10;63.40
54938;DHT22;52756;52.826;6.214;2022-07-11T09:55:34;21.20;63.60
54938;DHT22;52756;52.826;6.214;2022-07-11T09:58:06;21.10;63.70
54938;DHT22;52756;52.826;6.214;2022-07-11T10:00:33;21.20;63.40
54938;DHT22;52756;52.826;6.214;2022-07-11T10:02:59;21.20;63.20
54938;DHT22;52756;52.826;6.214;2022-07-11T10:05:26;21.20;63.30
54938;DHT22;52756;52.826;6.214;2022-07-11T10:07:51;21.30;63.50
54938;DHT22;52756;52.826;6.214;2022-07-11T10:10:17;21.30;63.30
54938;DHT22;52756;52.826;6.214;2022-07-11T10:12:44;21.40;63.00
54938;DHT22;52756;52.826;6.214;2022-07-11T10:15:15;21.40;62.80
54938;DHT22;52756;52.826;6.214;2022-07-11T10:29:01;21.60;62.10
54938;DHT22;52756;52.826;6.214;2022-07-11T10:31:30;21.60;62.10
54938;DHT22;52756;52.826;6.214;2022-07-11T10:34:02;21.70;62.00
54938;DHT22;52756;52.826;6.214;2022-07-11T10:36:29;21.80;62.10
54938;DHT22;52756;52.826;6.214;2022-07-11T10:41:40;21.80;61.60
54938;DHT22;52756;52.826;6.214;2022-07-11T10:44:06;21.80;61.50
54938;DHT22;52756;52.826;6.214;2022-07-11T10:46:34;21.80;61.30
54938;DHT22;52756;52.826;6.214;2022-07-11T10:59:21;21.90;61.20
54938;DHT22;52756;52.826;6.214;2022-07-11T11:09:58;22.10;60.80
54938;DHT22;52756;52.826;6.214;2022-07-11T11:15:49;22.20;60.60
54938;DHT22;52756;52.826;6.214;2022-07-11T11:23:38;22.40;60.00
54938;DHT22;52756;52.826;6.214;2022-07-11T11:26:11;22.40;60.10
54938;DHT22;52756;52.826;6.214;2022-07-11T11:28:38;22.50;59.90
54938;DHT22;52756;52.826;6.214;2022-07-11T11:31:19;22.50;59.80
54938;DHT22;52756;52.826;6.214;2022-07-11T11:33:46;22.50;59.70
54938;DHT22;52756;52.826;6.214;2022-07-11T11:36:16;22.60;59.60
54938;DHT22;52756;52.826;6.214;2022-07-11T11:38:41;22.60;59.30
54938;DHT22;52756;52.826;6.214;2022-07-11T11:41:08;22.70;59.20
54938;DHT22;52756;52.826;6.214;2022-07-11T11:43:37;22.70;59.00
54938;DHT22;52756;52.826;6.214;2022-07-11T11:46:03;22.80;59.20
54938;DHT22;52756;52.826;6.214;2022-07-11T11:51:10;22.90;58.10
54938;DHT22;52756;52.826;6.214;2022-07-11T11:53:46;22.90;58.40
54938;DHT22;52756;52.826;6.214;2022-07-11T11:59:00;22.90;58.10
54938;DHT22;52756;52.826;6.214;2022-07-11T12:01:27;23.00;58.50
54938;DHT22;52756;52.826;6.214;2022-07-11T12:06:29;23.00;58.70
54938;DHT22;52756;52.826;6.214;2022-07-11T12:09:15;23.10;58.70
54938;DHT22;52756;52.826;6.214;2022-07-11T12:11:47;23.10;58.10
54938;DHT22;52756;52.826;6.214;2022-07-11T12:14:14;23.20;58.50
54938;DHT22;52756;52.826;6.214;2022-07-11T12:16:44;23.20;58.30
54938;DHT22;52756;52.826;6.214;2022-07-11T12:19:18;23.30;58.10
54938;DHT22;52756;52.826;6.214;2022-07-11T12:21:51;23.30;57.90
54938;DHT22;52756;52.826;6.214;2022-07-11T12:24:18;23.40;57.50
54938;DHT22;52756;52.826;6.214;2022-07-11T12:26:46;23.40;57.80
54938;DHT22;52756;52.826;6.214;2022-07-11T12:29:17;23.50;58.00
54938;DHT22;52756;52.826;6.214;2022-07-11T12:34:24;23.50;57.90
54938;DHT22;52756;52.826;6.214;2022-07-11T12:39:31;23.60;57.60
54938;DHT22;52756;52.826;6.214;2022-07-11T12:41:59;23.60;57.50
54938;DHT22;52756;52.826;6.214;2022-07-11T12:47:09;23.70;57.50
54938;DHT22;52756;52.826;6.214;2022-07-11T12:49:35;23.70;57.40
54938;DHT22;52756;52.826;6.214;2022-07-11T12:52:02;23.70;57.30
54938;DHT22;52756;52.826;6.214;2022-07-11T12:54:32;23.80;57.20
54938;DHT22;52756;52.826;6.214;2022-07-11T12:57:00;23.80;57.10
54938;DHT22;52756;52.826;6.214;2022-07-11T12:59:28;23.80;57.20
54938;DHT22;52756;52.826;6.214;2022-07-11T13:02:06;23.80;57.20
54938;DHT22;52756;52.826;6.214;2022-07-11T13:04:45;23.80;57.20
54938;DHT22;52756;52.826;6.214;2022-07-11T13:07:37;23.80;56.80
54938;DHT22;52756;52.826;6.214;2022-07-11T13:10:23;23.90;56.80
54938;DHT22;52756;52.826;6.214;2022-07-11T13:12:52;23.90;56.70
54938;DHT22;52756;52.826;6.214;2022-07-11T13:15:20;23.90;56.60
54938;DHT22;52756;52.826;6.214;2022-07-11T13:17:48;24.00;56.60
54938;DHT22;52756;52.826;6.214;2022-07-11T13:20:16;24.00;56.70
54938;DHT22;52756;52.826;6.214;2022-07-11T13:22:44;24.00;56.60
54938;DHT22;52756;52.826;6.214;2022-07-11T13:25:12;24.10;56.20
54938;DHT22;52756;52.826;6.214;2022-07-11T13:27:39;24.10;56.40
54938;DHT22;52756;52.826;6.214;2022-07-11T13:30:06;24.10;56.60
54938;DHT22;52756;52.826;6.214;2022-07-11T13:32:38;24.10;56.70
54938;DHT22;52756;52.826;6.214;2022-07-11T13:35:04;24.20;57.00
54938;DHT22;52756;52.826;6.214;2022-07-11T13:37:30;24.20;56.70
54938;DHT22;52756;52.826;6.214;2022-07-11T13:39:56;24.20;56.60
54938;DHT22;52756;52.826;6.214;2022-07-11T13:42:21;24.20;56.40
54938;DHT22;52756;52.826;6.214;2022-07-11T13:44:47;24.20;56.50
54938;DHT22;52756;52.826;6.214;2022-07-11T13:47:13;24.20;56.40
54938;DHT22;52756;52.826;6.214;2022-07-11T13:49:39;24.30;56.60
54938;DHT22;52756;52.826;6.214;2022-07-11T13:52:05;24.30;56.60
54938;DHT22;52756;52.826;6.214;2022-07-11T13:54:31;24.30;56.20
54938;DHT22;52756;52.826;6.214;2022-07-11T13:56:58;24.30;55.90
54938;DHT22;52756;52.826;6.214;2022-07-11T13:59:23;24.30;55.90
54938;DHT22;52756;52.826;6.214;2022-07-11T14:01:49;24.30;56.00
54938;DHT22;52756;52.826;6.214;2022-07-11T14:04:15;24.30;55.90
54938;DHT22;52756;52.826;6.214;2022-07-11T14:06:40;24.30;55.70
54938;DHT22;52756;52.826;6.214;2022-07-11T14:09:06;24.30;55.60
54938;DHT22;52756;52.826;6.214;2022-07-11T14:11:32;24.40;55.60
54938;DHT22;52756;52.826;6.214;2022-07-11T14:13:58;24.40;55.60
54938;DHT22;52756;52.826;6.214;2022-07-11T14:16:24;24.40;55.40
54938;DHT22;52756;52.826;6.214;2022-07-11T14:18:50;24.40;55.40
54938;DHT22;52756;52.826;6.214;2022-07-11T14:21:16;24.40;55.50
54938;DHT22;52756;52.826;6.214;2022-07-11T14:23:42;24.40;55.30
54938;DHT22;52756;52.826;6.214;2022-07-11T14:26:08;24.50;55.40
54938;DHT22;52756;52.826;6.214;2022-07-11T14:28:35;24.50;55.30
54938;DHT22;52756;52.826;6.214;2022-07-11T14:31:01;24.50;55.50
54938;DHT22;52756;52.826;6.214;2022-07-11T14:33:26;24.60;55.50
54938;DHT22;52756;52.826;6.214;2022-07-11T14:35:52;24.60;55.60
54938;DHT22;52756;52.826;6.214;2022-07-11T14:38:21;24.60;55.60
54938;DHT22;52756;52.826;6.214;2022-07-11T14:40:46;24.70;55.50
54938;DHT22;52756;52.826;6.214;2022-07-11T14:43:12;24.70;55.70
54938;DHT22;52756;52.826;6.214;2022-07-11T14:45:38;24.70;55.70
54938;DHT22;52756;52.826;6.214;2022-07-11T14:48:04;24.70;55.60
54938;DHT22;52756;52.826;6.214;2022-07-11T14:50:30;24.70;55.70
54938;DHT22;52756;52.826;6.214;2022-07-11T14:52:59;24.80;55.80
54938;DHT22;52756;52.826;6.214;2022-07-11T14:55:24;24.80;55.60
54938;DHT22;52756;52.826;6.214;2022-07-11T14:57:50;24.90;55.40
54938;DHT22;52756;52.826;6.214;2022-07-11T15:00:16;24.90;55.30
54938;DHT22;52756;52.826;6.214;2022-07-11T15:02:45;24.90;55.00
54938;DHT22;52756;52.826;6.214;2022-07-11T15:05:29;25.00;55.20
54938;DHT22;52756;52.826;6.214;2022-07-11T15:07:54;25.00;55.10
54938;DHT22;52756;52.826;6.214;2022-07-11T15:10:39;25.00;55.20
54938;DHT22;52756;52.826;6.214;2022-07-11T15:13:23;25.00;54.80
54938;DHT22;52756;52.826;6.214;2022-07-11T15:15:49;25.00;54.40
54938;DHT22;52756;52.826;6.214;2022-07-11T15:18:14;25.10;54.80
54938;DHT22;52756;52.826;6.214;2022-07-11T15:20:40;25.10;54.90
54938;DHT22;52756;52.826;6.214;2022-07-11T15:23:06;25.10;54.70
54938;DHT22;52756;52.826;6.214;2022-07-11T15:25:31;25.10;54.60
54938;DHT22;52756;52.826;6.214;2022-07-11T15:27:57;25.10;54.60
54938;DHT22;52756;52.826;6.214;2022-07-11T15:30:23;25.10;54.60
54938;DHT22;52756;52.826;6.214;2022-07-11T15:32:49;25.10;54.60
54938;DHT22;52756;52.826;6.214;2022-07-11T15:35:15;25.10;54.70
54938;DHT22;52756;52.826;6.214;2022-07-11T15:37:41;25.10;54.50
54938;DHT22;52756;52.826;6.214;2022-07-11T15:40:08;25.10;54.20
54938;DHT22;52756;52.826;6.214;2022-07-11T15:42:33;25.10;54.00
54938;DHT22;52756;52.826;6.214;2022-07-11T15:44:59;25.10;54.20
54938;DHT22;52756;52.826;6.214;2022-07-11T15:47:25;25.10;54.30
54938;DHT22;52756;52.826;6.214;2022-07-11T15:49:51;25.10;54.50
54938;DHT22;52756;52.826;6.214;2022-07-11T15:52:17;25.10;54.10
54938;DHT22;52756;52.826;6.214;2022-07-11T15:54:42;25.00;53.70
54938;DHT22;52756;52.826;6.214;2022-07-11T15:57:08;25.10;54.00
54938;DHT22;52756;52.826;6.214;2022-07-11T15:59:34;25.10;53.60
54938;DHT22;52756;52.826;6.214;2022-07-11T16:02:00;25.10;53.80
54938;DHT22;52756;52.826;6.214;2022-07-11T16:04:26;25.10;54.00
54938;DHT22;52756;52.826;6.214;2022-07-11T16:06:52;25.10;53.80
54938;DHT22;52756;52.826;6.214;2022-07-11T16:09:19;25.10;54.10
54938;DHT22;52756;52.826;6.214;2022-07-11T16:11:46;25.20;53.60
54938;DHT22;52756;52.826;6.214;2022-07-11T16:14:11;25.20;53.70
54938;DHT22;52756;52.826;6.214;2022-07-11T16:16:38;25.20;53.90
54938;DHT22;52756;52.826;6.214;2022-07-11T16:19:05;25.20;53.90
54938;DHT22;52756;52.826;6.214;2022-07-11T16:21:31;25.20;54.10
54938;DHT22;52756;52.826;6.214;2022-07-11T16:23:57;25.30;54.00
54938;DHT22;52756;52.826;6.214;2022-07-11T16:26:22;25.30;53.70